Time;durP1;ratioP1;P1;durP2;ratioP2;P2;SDS_P1;SDS_P2;PMS_P1;PMS_P2;Temp;Humidity;BMP_temperature;BMP_pressure;BME280_temperature;BME280_humidity;BME280_pressure;Samples;Min_cycle;Max_cycle;Signal;HPM_P1;HPM_P2
2023/08/22 00:01:14;;;;;;;1.63;1.23;;;;;;;26.56;63.63;99511.44;5050722;28;20669;-68
2023/08/22 00:03:41;;;;;;;1.03;1.03;;;;;;;26.46;63.37;99487.00;5050794;28;20200;-68
2023/08/22 00:06:09;;;;;;;1.13;1.03;;;;;;;26.52;63.34;99507.44;5050515;28;20188;-68
2023/08/22 00:08:35;;;;;;;1.93;1.00;;;;;;;26.49;63.91;99502.47;5050868;28;20254;-68
2023/08/22 00:11:02;;;;;;;0.87;0.87;;;;;;;26.48;63.68;99513.97;5049937;28;20212;-68
2023/08/22 00:13:29;;;;;;;2.57;1.00;;;;;;;26.46;64.50;99518.53;5050785;28;20635;-68
2023/08/22 00:15:59;;;;;;;1.33;1.20;;;;;;;26.44;64.42;99515.22;5050186;28;20224;-68
2023/08/22 00:18:25;;;;;;;1.40;1.30;;;;;;;26.43;64.46;99519.63;5050277;28;20760;-68
2023/08/22 00:20:52;;;;;;;1.10;1.00;;;;;;;26.41;64.19;99520.75;5049966;28;20235;-68
2023/08/22 00:23:20;;;;;;;8.60;1.10;;;;;;;26.36;64.50;99520.38;5050003;28;20228;-68
2023/08/22 00:25:47;;;;;;;1.00;1.00;;;;;;;26.33;64.21;99518.03;5050422;28;20665;-68
2023/08/22 00:28:14;;;;;;;0.80;0.80;;;;;;;26.24;65.14;99518.88;5050332;28;20254;-68
2023/08/22 00:30:41;;;;;;;3.00;1.33;;;;;;;26.14;65.55;99512.81;5050787;28;20628;-68
2023/08/22 00:33:08;;;;;;;1.20;1.10;;;;;;;25.95;66.28;99509.22;5050098;28;20232;-68
2023/08/22 00:35:35;;;;;;;1.57;0.93;;;;;;;25.86;66.40;99504.81;5050117;28;20259;-68
2023/08/22 00:38:01;;;;;;;0.97;0.97;;;;;;;25.65;68.10;99498.91;5050371;28;20221;-68
2023/08/22 00:40:29;;;;;;;1.67;1.57;;;;;;;25.60;68.46;99508.97;5049995;28;20250;-68
2023/08/22 00:42:56;;;;;;;0.93;0.93;;;;;;;25.56;68.53;99500.56;5050281;28;20208;-68
2023/08/22 00:45:23;;;;;;;1.07;0.87;;;;;;;25.61;68.56;99505.41;5049681;28;20258;-68
2023/08/22 00:47:49;;;;;;;1.07;1.07;;;;;;;25.61;68.49;99508.03;5049797;28;20730;-68
2023/08/22 00:50:16;;;;;;;1.10;1.10;;;;;;;25.56;68.75;99502.34;5049731;28;20200;-68
2023/08/22 00:52:43;;;;;;;0.97;0.97;;;;;;;25.62;69.04;99520.19;5049807;28;20208;-68
2023/08/22 00:55:10;;;;;;;1.47;1.47;;;;;;;25.63;68.90;99521.84;5050150;28;20200;-68
2023/08/22 00:57:39;;;;;;;1.37;1.27;;;;;;;25.60;68.75;99508.97;5050130;28;20689;-68
2023/08/22 01:00:09;;;;;;;2.37;1.53;;;;;;;25.61;68.68;99518.53;5050068;28;20199;-68
2023/08/22 01:02:36;;;;;;;1.00;1.00;;;;;;;25.62;69.24;99517.56;5050006;28;20203;-68
2023/08/22 01:05:04;;;;;;;1.60;1.20;;;;;;;25.65;69.20;99517.28;5049788;28;20200;-69
2023/08/22 01:07:35;;;;;;;1.50;1.40;;;;;;;25.66;69.33;99518.94;5049644;28;20284;-68
2023/08/22 01:10:07;;;;;;;1.40;1.20;;;;;;;25.68;69.01;99526.69;5049945;28;20636;-68
2023/08/22 01:12:40;;;;;;;1.00;1.00;;;;;;;25.66;68.79;99523.34;5048640;28;20193;-68
2023/08/22 01:15:19;;;;;;;1.30;1.20;;;;;;;25.66;69.23;99518.94;5049502;28;20628;-68
2023/08/22 01:17:47;;;;;;;2.77;1.50;;;;;;;25.67;70.10;99525.84;5049927;28;20323;-68
2023/08/22 01:20:14;;;;;;;1.00;0.87;;;;;;;25.66;69.37;99521.56;5050084;28;20668;-68
2023/08/22 01:22:42;;;;;;;1.10;1.07;;;;;;;25.61;69.30;99523.78;5049792;28;20224;-68
2023/08/22 01:25:10;;;;;;;1.03;1.00;;;;;;;25.58;69.72;99524.06;5047770;28;20623;-68
2023/08/22 01:27:44;;;;;;;1.50;1.13;;;;;;;25.59;70.02;99523.91;5049812;28;20201;-68
2023/08/22 01:30:17;;;;;;;3.00;1.23;;;;;;;25.59;70.00;99517.81;5050032;28;20741;-68
2023/08/22 01:32:49;;;;;;;1.00;1.00;;;;;;;25.53;70.53;99521.84;5052876;28;20204;-68
2023/08/22 01:35:22;;;;;;;0.90;0.90;;;;;;;25.40;70.90;99517.78;5053520;28;20288;-68
2023/08/22 01:37:52;;;;;;;2.40;1.47;;;;;;;25.30;71.35;99506.47;5053352;28;20223;-68
2023/08/22 01:40:19;;;;;;;2.80;1.13;;;;;;;25.21;71.43;99515.13;5052801;28;20196;-68
2023/08/22 01:42:46;;;;;;;1.47;1.07;;;;;;;25.12;72.13;99521.22;5053375;28;20254;-68
2023/08/22 01:45:12;;;;;;;1.07;1.07;;;;;;;25.02;72.18;99519.41;5053087;28;20201;-68
2023/08/22 01:47:39;;;;;;;1.00;1.00;;;;;;;24.91;73.26;99527.34;5053813;28;20197;-68
2023/08/22 01:50:07;;;;;;;1.20;1.20;;;;;;;24.83;73.56;99523.75;5052953;28;20681;-68
2023/08/22 01:52:34;;;;;;;1.87;1.20;;;;;;;24.84;73.99;99526.25;5053613;28;20205;-68
2023/08/22 01:55:03;;;;;;;2.33;0.93;;;;;;;24.87;73.78;99526.00;5053361;28;20254;-68
2023/08/22 01:57:30;;;;;;;1.03;0.80;;;;;;;24.79;73.56;99523.16;5053190;28;20209;-68
2023/08/22 01:59:58;;;;;;;2.50;1.17;;;;;;;24.67;73.55;99523.38;5052757;28;20197;-68
2023/08/22 02:02:24;;;;;;;0.83;0.83;;;;;;;24.60;73.83;99524.88;5053280;28;20197;-68
2023/08/22 02:04:51;;;;;;;0.97;0.97;;;;;;;24.50;74.85;99527.44;5053328;28;20251;-68
2023/08/22 02:07:18;;;;;;;2.87;1.13;;;;;;;24.35;75.23;99510.44;5052983;28;20282;-68
2023/08/22 02:09:45;;;;;;;0.80;0.80;;;;;;;24.43;75.05;99528.94;5053355;28;20197;-68
2023/08/22 02:12:13;;;;;;;0.97;0.90;;;;;;;24.38;74.86;99512.78;5052656;28;20223;-68
2023/08/22 02:14:39;;;;;;;1.10;1.10;;;;;;;24.36;75.39;99520.75;5053077;28;20768;-68
2023/08/22 02:17:06;;;;;;;1.13;1.13;;;;;;;24.32;75.53;99518.56;5052592;28;20217;-68
2023/08/22 02:19:33;;;;;;;1.83;1.23;;;;;;;24.33;75.79;99525.47;5053064;28;20246;-68
2023/08/22 02:22:00;;;;;;;1.73;1.07;;;;;;;24.31;76.33;99522.97;5053113;28;20192;-68
2023/08/22 02:24:26;;;;;;;1.43;1.40;;;;;;;24.27;76.41;99520.72;5052661;28;20239;-68
2023/08/22 02:26:53;;;;;;;0.80;0.80;;;;;;;24.23;76.61;99514.09;5052899;28;20254;-68
2023/08/22 02:29:21;;;;;;;1.53;1.43;;;;;;;24.17;76.76;99514.63;5052623;28;20726;-68
2023/08/22 02:31:48;;;;;;;1.57;1.47;;;;;;;24.16;77.04;99515.56;5052612;28;20201;-68
2023/08/22 02:34:14;;;;;;;1.50;1.10;;;;;;;24.17;77.22;99520.66;5052419;28;20692;-68
2023/08/22 02:36:41;;;;;;;1.10;1.07;;;;;;;24.15;76.88;99527.81;5052867;28;20286;-68
2023/08/22 02:39:08;;;;;;;1.33;1.33;;;;;;;24.10;77.24;99518.66;5052258;28;20266;-68
2023/08/22 02:41:35;;;;;;;0.97;0.97;;;;;;;24.07;77.47;99522.38;5050258;28;20235;-68
2023/08/22 02:44:02;;;;;;;1.07;1.07;;;;;;;24.04;77.97;99518.22;5051423;28;20193;-68
2023/08/22 02:46:30;;;;;;;1.30;1.30;;;;;;;24.01;77.81;99515.84;5052170;28;20207;-68
2023/08/22 02:48:57;;;;;;;3.47;1.27;;;;;;;23.99;78.33;99520.41;5048590;28;20208;-68
2023/08/22 02:51:24;;;;;;;1.63;1.53;;;;;;;23.94;78.02;99519.94;5052215;28;20205;-68
2023/08/22 02:53:50;;;;;;;0.77;0.77;;;;;;;23.94;77.80;99511.28;5052431;28;20231;-68
2023/08/22 02:56:17;;;;;;;1.57;1.47;;;;;;;23.92;77.98;99523.66;5051270;28;20197;-68
2023/08/22 02:58:44;;;;;;;1.10;0.90;;;;;;;23.86;77.92;99526.78;5052036;28;20221;-68
2023/08/22 03:01:11;;;;;;;1.80;1.63;;;;;;;23.88;78.36;99524.84;5051847;28;20284;-68
2023/08/22 03:03:39;;;;;;;1.10;1.03;;;;;;;23.84;78.74;99521.69;5052077;28;20223;-68
2023/08/22 03:06:06;;;;;;;3.10;1.30;;;;;;;23.83;78.74;99535.72;5051798;28;20638;-68
2023/08/22 03:08:32;;;;;;;1.20;1.17;;;;;;;23.87;78.74;99531.06;5052091;28;20201;-68
2023/08/22 03:11:00;;;;;;;1.33;1.20;;;;;;;23.87;78.68;99529.28;5052005;28;20232;-68
2023/08/22 03:13:28;;;;;;;8.23;1.80;;;;;;;23.91;78.60;99530.66;5051663;28;20232;-68
2023/08/22 03:15:55;;;;;;;2.17;0.87;;;;;;;23.93;78.72;99534.00;5051728;28;20205;-68
2023/08/22 03:18:21;;;;;;;0.90;0.90;;;;;;;23.95;78.54;99542.56;5051991;28;20227;-68
2023/08/22 03:20:50;;;;;;;1.00;1.00;;;;;;;23.97;78.55;99540.63;5051945;28;20730;-68
2023/08/22 03:23:16;;;;;;;0.90;0.90;;;;;;;23.97;78.06;99534.59;5051384;28;20716;-68
2023/08/22 03:25:43;;;;;;;1.60;1.30;;;;;;;23.98;78.42;99534.44;5051586;28;20192;-68
2023/08/22 03:28:10;;;;;;;3.20;1.67;;;;;;;23.98;78.51;99544.91;5051479;28;20258;-68
2023/08/22 03:30:36;;;;;;;1.73;1.53;;;;;;;23.99;78.23;99543.97;5051464;28;20758;-67
2023/08/22 03:33:03;;;;;;;1.00;1.00;;;;;;;23.98;78.09;99544.91;5051151;28;20254;-68
2023/08/22 03:35:30;;;;;;;1.57;1.47;;;;;;;23.98;78.25;99546.69;5050451;28;20196;-68
2023/08/22 03:37:58;;;;;;;1.00;1.00;;;;;;;23.94;78.12;99546.13;5051318;28;20684;-68
2023/08/22 03:40:25;;;;;;;1.47;0.87;;;;;;;23.91;78.10;99549.00;5051102;28;20262;-68
2023/08/22 03:42:51;;;;;;;1.27;1.17;;;;;;;23.86;78.76;99543.31;5050924;28;20258;-69
2023/08/22 03:45:18;;;;;;;1.17;1.17;;;;;;;23.85;78.25;99541.66;5050658;28;20734;-68
2023/08/22 03:47:45;;;;;;;1.07;1.07;;;;;;;23.84;78.63;99544.41;5051947;28;20262;-67
2023/08/22 03:50:11;;;;;;;1.77;1.67;;;;;;;23.78;78.49;99540.50;5052330;28;20197;-68
2023/08/22 03:52:38;;;;;;;0.77;0.77;;;;;;;23.74;78.64;99544.34;5050059;28;20672;-68
2023/08/22 03:55:07;;;;;;;0.70;0.70;;;;;;;23.69;79.27;99541.25;5050475;28;20200;-68
2023/08/22 03:57:34;;;;;;;0.70;0.70;;;;;;;23.65;79.43;99544.25;5050446;28;20278;-68
2023/08/22 04:00:00;;;;;;;1.27;1.27;;;;;;;23.63;80.32;99546.16;5051345;28;20657;-68
2023/08/22 04:02:27;;;;;;;1.20;1.20;;;;;;;23.64;80.16;99548.66;5051527;28;20254;-68
2023/08/22 04:04:56;;;;;;;1.10;1.10;;;;;;;23.61;79.96;99538.44;5050556;28;20200;-68
2023/08/22 04:07:23;;;;;;;1.23;1.13;;;;;;;23.73;79.78;99547.91;5050800;28;20673;-68
2023/08/22 04:09:50;;;;;;;1.10;1.10;;;;;;;23.77;80.79;99554.56;5050753;28;20266;-68
2023/08/22 04:12:18;;;;;;;1.37;1.37;;;;;;;23.85;80.36;99556.53;5050731;28;20267;-68
2023/08/22 04:14:44;;;;;;;1.60;1.50;;;;;;;23.93;80.13;99560.19;5050833;28;20197;-68
2023/08/22 04:17:11;;;;;;;1.37;0.93;;;;;;;23.98;79.59;99560.63;5049851;28;20246;-68
2023/08/22 04:19:38;;;;;;;1.23;1.23;;;;;;;24.00;79.10;99566.59;5049687;28;20196;-68
2023/08/22 04:22:05;;;;;;;1.33;1.23;;;;;;;24.04;80.04;99567.97;5049870;28;20320;-68
2023/08/22 04:24:32;;;;;;;1.00;1.00;;;;;;;24.08;79.17;99567.72;5049127;28;20197;-68
2023/08/22 04:26:59;;;;;;;2.17;1.00;;;;;;;24.08;79.67;99568.56;5052512;28;20266;-68
2023/08/22 04:29:27;;;;;;;1.17;1.17;;;;;;;24.10;79.33;99573.69;5049774;28;20249;-69
2023/08/22 04:31:56;;;;;;;1.07;1.07;;;;;;;24.11;79.41;99572.69;5049907;28;20692;-68
2023/08/22 04:34:23;;;;;;;1.20;1.20;;;;;;;24.14;79.35;99573.31;5049330;28;20200;-69
2023/08/22 04:36:49;;;;;;;1.23;1.23;;;;;;;24.16;79.33;99575.81;5050207;28;20200;-67
2023/08/22 04:39:16;;;;;;;1.20;1.20;;;;;;;24.18;79.79;99574.72;5048823;28;20212;-67
2023/08/22 04:41:43;;;;;;;1.57;1.50;;;;;;;24.23;79.89;99580.44;5050565;28;20677;-67
2023/08/22 04:44:10;;;;;;;0.83;0.83;;;;;;;24.34;79.95;99579.50;5049966;28;20196;-67
2023/08/22 04:46:38;;;;;;;1.00;1.00;;;;;;;24.52;79.65;99580.59;5046137;28;20201;-67
2023/08/22 04:49:04;;;;;;;1.50;1.40;;;;;;;24.65;77.88;99586.47;5049731;28;20200;-67
2023/08/22 04:51:31;;;;;;;1.27;1.17;;;;;;;24.73;78.09;99586.63;5040453;28;20205;-68
2023/08/22 04:53:58;;;;;;;0.97;0.97;;;;;;;24.89;78.44;99591.41;5048495;28;20273;-68
2023/08/22 04:56:25;;;;;;;1.97;1.33;;;;;;;25.01;77.07;99579.84;5046833;28;20262;-67
2023/08/22 04:58:53;;;;;;;1.63;1.03;;;;;;;25.17;76.79;99579.38;5046505;28;20219;-67
2023/08/22 05:01:20;;;;;;;1.03;1.03;;;;;;;25.37;74.55;99588.94;5047444;28;20722;-67
2023/08/22 05:03:48;;;;;;;1.00;1.00;;;;;;;25.45;74.85;99581.22;5049075;28;20202;-67
2023/08/22 05:06:14;;;;;;;5.40;1.27;;;;;;;25.49;74.16;99574.75;5043910;28;20201;-67
2023/08/22 05:08:41;;;;;;;2.37;1.13;;;;;;;25.63;75.08;99587.47;5046669;28;20200;-67
2023/08/22 05:11:08;;;;;;;1.37;1.27;;;;;;;25.76;73.29;99585.41;5046080;28;20208;-67
2023/08/22 05:13:35;;;;;;;0.83;0.83;;;;;;;25.92;73.07;99585.69;5046989;28;20278;-67
2023/08/22 05:16:01;;;;;;;1.33;1.23;;;;;;;26.01;70.32;99590.09;5047402;28;20554;-67
2023/08/22 05:18:28;;;;;;;1.07;1.07;;;;;;;26.13;72.08;99584.72;5044681;28;20274;-66
2023/08/22 05:20:56;;;;;;;1.03;1.00;;;;;;;26.29;69.46;99588.47;5047535;28;20205;-67
2023/08/22 05:23:23;;;;;;;1.40;1.27;;;;;;;26.31;69.46;99575.16;5046369;28;20254;-67
2023/08/22 05:25:49;;;;;;;1.43;1.33;;;;;;;26.47;68.76;99589.38;5048103;28;20205;-67
2023/08/22 05:28:16;;;;;;;1.30;1.20;;;;;;;26.45;68.62;99585.25;5046625;28;20249;-66
2023/08/22 05:30:43;;;;;;;1.30;1.17;;;;;;;26.65;69.18;99594.75;5047547;28;20231;-66
2023/08/22 05:33:10;;;;;;;1.27;1.17;;;;;;;26.80;68.07;99601.19;5048653;28;20204;-68
2023/08/22 05:35:37;;;;;;;0.83;0.83;;;;;;;26.91;66.69;99595.78;5048275;28;20287;-66
2023/08/22 05:38:05;;;;;;;1.30;1.30;;;;;;;27.08;68.27;99599.41;5048473;28;20282;-66
2023/08/22 05:40:31;;;;;;;1.47;1.37;;;;;;;27.26;67.69;99597.69;5047080;28;20259;-67
2023/08/22 05:42:58;;;;;;;0.87;0.87;;;;;;;27.46;64.47;99593.16;5048718;28;20205;-66
2023/08/22 05:45:25;;;;;;;1.00;1.00;;;;;;;27.64;64.56;99594.00;5047636;28;20257;-67
2023/08/22 05:47:51;;;;;;;8.07;1.07;;;;;;;27.76;63.53;99595.41;5049021;28;20219;-65
2023/08/22 05:50:18;;;;;;;1.40;1.30;;;;;;;27.88;63.27;99594.22;5050052;28;20208;-65
2023/08/22 05:52:45;;;;;;;3.47;1.30;;;;;;;28.06;63.85;99597.69;5049828;28;20196;-64
2023/08/22 05:55:13;;;;;;;1.33;1.23;;;;;;;28.21;64.23;99597.16;5050272;28;20566;-65
2023/08/22 05:57:42;;;;;;;1.10;1.10;;;;;;;28.35;62.67;99596.59;5049995;28;20201;-65
2023/08/22 06:00:10;;;;;;;1.77;1.67;;;;;;;28.54;62.50;99599.84;5049954;28;20577;-65
2023/08/22 06:02:36;;;;;;;1.53;1.20;;;;;;;28.76;61.67;99598.50;5047318;28;20213;-67
2023/08/22 06:05:06;;;;;;;1.47;1.37;;;;;;;29.01;59.11;99600.31;5047394;28;20258;-68
2023/08/22 06:07:33;;;;;;;4.53;1.30;;;;;;;29.27;59.70;99600.28;5046916;28;20205;-67
2023/08/22 06:10:00;;;;;;;2.22;1.25;;;;;;;29.59;57.38;99599.53;5048060;28;20208;-66
2023/08/22 06:12:28;;;;;;;1.30;1.20;;;;;;;29.88;58.93;99602.56;5047765;28;20676;-68
2023/08/22 06:14:55;;;;;;;3.00;1.15;;;;;;;30.21;55.97;99606.03;5047457;28;20258;-66
2023/08/22 06:17:22;;;;;;;1.60;1.17;;;;;;;30.36;54.87;99598.25;5048556;28;20270;-65
2023/08/22 06:19:49;;;;;;;0.90;0.90;;;;;;;30.44;51.85;99600.88;5051646;28;20224;-67
2023/08/22 06:22:16;;;;;;;1.42;1.42;;;;;;;30.60;53.76;99600.84;5052149;28;20254;-67
2023/08/22 06:24:42;;;;;;;1.27;1.27;;;;;;;30.74;53.97;99597.53;5050994;28;20246;-67
2023/08/22 06:27:09;;;;;;;1.27;1.00;;;;;;;30.96;54.31;99601.28;5050809;28;20201;-67
2023/08/22 06:29:37;;;;;;;1.08;1.08;;;;;;;31.02;50.66;99600.63;5051731;28;20609;-66
2023/08/22 06:32:04;;;;;;;11.57;1.33;;;;;;;30.94;51.37;99598.78;5049182;28;20204;-66
2023/08/22 06:34:31;;;;;;;1.02;1.02;;;;;;;31.09;53.61;99601.56;5051327;28;20632;-67
2023/08/22 06:36:58;;;;;;;1.80;1.20;;;;;;;31.31;50.28;99594.69;5049824;28;20653;-67
2023/08/22 06:39:25;;;;;;;1.10;1.10;;;;;;;31.39;48.43;99595.44;5050272;28;20282;-66
2023/08/22 06:41:52;;;;;;;3.40;1.40;;;;;;;31.42;48.12;99592.44;5050643;28;20200;-66
2023/08/22 06:44:18;;;;;;;1.48;1.38;;;;;;;31.34;49.38;99592.50;5051283;28;20213;-66
2023/08/22 06:46:46;;;;;;;4.63;1.38;;;;;;;31.32;49.55;99591.84;5051815;28;20216;-66
2023/08/22 06:49:13;;;;;;;1.65;1.17;;;;;;;31.43;51.69;99599.41;5050472;28;20269;-65
2023/08/22 06:51:40;;;;;;;2.17;1.98;;;;;;;31.61;49.02;99596.50;5051209;28;20254;-66
2023/08/22 06:54:07;;;;;;;1.00;1.00;;;;;;;31.83;47.78;99594.88;5048989;28;20204;-67
2023/08/22 06:56:33;;;;;;;1.27;1.17;;;;;;;31.93;49.23;99585.66;5051842;28;20302;-66
2023/08/22 06:59:00;;;;;;;3.63;1.27;;;;;;;32.14;47.37;99593.81;5049493;28;20286;-67
2023/08/22 07:01:27;;;;;;;1.17;1.17;;;;;;;32.32;48.16;99589.97;5051016;28;20676;-66
2023/08/22 07:03:55;;;;;;;0.90;0.90;;;;;;;32.54;44.01;99597.06;5050841;28;20208;-67
2023/08/22 07:06:21;;;;;;;0.98;0.98;;;;;;;32.67;45.10;99594.63;5050983;28;21028;-66
2023/08/22 07:08:48;;;;;;;1.13;1.10;;;;;;;32.89;42.67;99596.38;5050264;28;20205;-66
2023/08/22 07:11:15;;;;;;;2.05;1.38;;;;;;;33.17;43.83;99592.06;5050908;28;20200;-66
2023/08/22 07:13:41;;;;;;;1.20;1.10;;;;;;;33.48;45.22;99588.28;5047027;28;20940;-66
2023/08/22 07:16:08;;;;;;;1.17;1.13;;;;;;;33.70;42.74;99593.47;5048379;28;20516;-67
2023/08/22 07:18:35;;;;;;;0.93;0.93;;;;;;;33.96;40.39;99598.22;5048386;28;20306;-66
2023/08/22 07:21:08;;;;;;;1.20;1.20;;;;;;;34.11;42.88;99590.19;5049972;28;20254;-67
2023/08/22 07:23:34;;;;;;;1.48;1.40;;;;;;;34.18;41.34;99591.06;5049954;28;20282;-66
2023/08/22 07:26:01;;;;;;;1.10;1.10;;;;;;;34.42;40.26;99597.78;5049945;28;20202;-67
2023/08/22 07:28:28;;;;;;;1.05;0.90;;;;;;;34.52;39.41;99592.94;5049457;28;20205;-67
2023/08/22 07:30:55;;;;;;;1.40;1.30;;;;;;;34.58;39.88;99590.31;5049634;28;21092;-67
2023/08/22 07:33:21;;;;;;;1.40;1.30;;;;;;;34.70;38.50;99596.75;5049715;28;20612;-67
2023/08/22 07:35:48;;;;;;;3.45;1.20;;;;;;;34.81;40.32;99590.06;5049038;28;20212;-66
2023/08/22 07:38:16;;;;;;;1.35;1.25;;;;;;;34.96;42.28;99590.75;5050137;28;20204;-67
2023/08/22 07:40:43;;;;;;;1.30;1.20;;;;;;;34.99;41.79;99590.38;5049406;28;20262;-66
2023/08/22 07:43:10;;;;;;;1.30;1.23;;;;;;;35.18;38.48;99595.00;5049412;28;20201;-66
2023/08/22 07:45:36;;;;;;;1.27;1.20;;;;;;;35.49;38.29;99590.97;5050314;28;20204;-66
2023/08/22 07:48:04;;;;;;;2.80;0.90;;;;;;;35.65;35.75;99595.97;5051141;28;20232;-66
2023/08/22 07:50:31;;;;;;;1.10;1.10;;;;;;;35.74;35.79;99579.56;5048327;28;20608;-66
2023/08/22 07:52:58;;;;;;;0.80;0.80;;;;;;;35.97;36.52;99586.34;5047853;28;20215;-66
2023/08/22 07:55:27;;;;;;;2.55;1.27;;;;;;;36.09;35.38;99588.22;5047644;28;20209;-66
2023/08/22 07:57:54;;;;;;;1.10;1.10;;;;;;;36.05;39.37;99581.63;5049983;28;20557;-66
2023/08/22 08:00:22;;;;;;;1.50;1.40;;;;;;;36.05;35.81;99586.97;5049550;28;20225;-66
2023/08/22 08:02:49;;;;;;;0.90;0.90;;;;;;;36.06;35.59;99579.81;5049465;28;20200;-65
2023/08/22 08:05:16;;;;;;;0.95;0.95;;;;;;;36.29;38.84;99582.88;5048858;28;20676;-66
2023/08/22 08:07:43;;;;;;;0.93;0.90;;;;;;;36.46;32.99;99583.25;5048877;28;20204;-66
2023/08/22 08:10:10;;;;;;;0.80;0.80;;;;;;;36.62;32.45;99588.19;5045664;28;20193;-66
2023/08/22 08:12:38;;;;;;;1.20;0.90;;;;;;;36.68;34.87;99584.66;5047909;28;20212;-66
2023/08/22 08:15:06;;;;;;;1.00;0.90;;;;;;;36.92;32.04;99589.34;5047013;28;20208;-66
2023/08/22 08:17:33;;;;;;;0.90;0.80;;;;;;;36.97;33.07;99581.47;5048941;28;20295;-66
2023/08/22 08:20:00;;;;;;;1.20;0.93;;;;;;;36.84;31.45;99579.69;5046875;28;20225;-67
2023/08/22 08:22:27;;;;;;;0.95;0.90;;;;;;;36.89;32.76;99584.41;5047678;28;20228;-68
2023/08/22 08:24:53;;;;;;;0.88;0.82;;;;;;;36.78;32.85;99572.53;5048169;28;20201;-67
2023/08/22 08:27:21;;;;;;;0.93;0.93;;;;;;;36.74;33.85;99575.81;5047237;28;20209;-67
2023/08/22 08:29:49;;;;;;;1.98;1.20;;;;;;;36.86;34.07;99584.84;5048118;28;20297;-67
2023/08/22 08:32:16;;;;;;;0.90;0.90;;;;;;;37.10;33.45;99584.13;5049247;28;20204;-68
2023/08/22 08:34:42;;;;;;;1.23;1.23;;;;;;;37.23;31.08;99575.22;5047556;28;20200;-67
2023/08/22 08:37:09;;;;;;;1.05;1.05;;;;;;;37.47;33.86;99587.06;5046606;28;20208;-66
2023/08/22 08:39:36;;;;;;;1.00;1.00;;;;;;;37.22;31.90;99578.97;5045815;28;20220;-66
2023/08/22 08:42:08;;;;;;;0.70;0.70;;;;;;;37.08;32.42;99583.53;5047547;28;20206;-66
2023/08/22 08:44:35;;;;;;;1.45;1.20;;;;;;;36.77;32.41;99580.75;5047742;28;20685;-66
2023/08/22 08:47:04;;;;;;;0.90;0.90;;;;;;;37.07;33.67;99581.88;5049208;28;20236;-66
2023/08/22 08:49:32;;;;;;;1.10;0.95;;;;;;;37.08;32.72;99585.38;5049464;28;20201;-66
2023/08/22 08:52:02;;;;;;;0.98;0.98;;;;;;;37.14;32.79;99580.00;5047099;28;20612;-66
2023/08/22 08:54:29;;;;;;;1.05;0.98;;;;;;;36.96;31.54;99581.72;5048289;28;20220;-66
2023/08/22 08:56:56;;;;;;;1.00;1.00;;;;;;;37.01;31.01;99581.91;5048682;28;20691;-66
2023/08/22 08:59:24;;;;;;;1.05;0.98;;;;;;;37.23;31.87;99584.06;5047576;28;20228;-66
2023/08/22 09:01:51;;;;;;;1.13;0.70;;;;;;;37.44;30.81;99576.75;5049225;28;20204;-66
2023/08/22 09:04:20;;;;;;;1.40;0.98;;;;;;;37.28;31.91;99573.56;5048558;28;20208;-66
2023/08/22 09:06:47;;;;;;;2.78;1.08;;;;;;;37.42;31.38;99560.91;5049332;28;20669;-67
2023/08/22 09:09:18;;;;;;;1.00;1.00;;;;;;;37.34;31.23;99567.38;5050027;28;20211;-67
2023/08/22 09:11:46;;;;;;;0.90;0.90;;;;;;;37.20;32.51;99559.63;5047984;28;20204;-66
2023/08/22 09:14:13;;;;;;;0.88;0.88;;;;;;;37.31;32.59;99557.09;5048227;28;20204;-66
2023/08/22 09:16:39;;;;;;;2.92;0.88;;;;;;;37.54;32.69;99555.75;5047978;28;20208;-66
2023/08/22 09:19:07;;;;;;;1.13;1.10;;;;;;;37.67;32.89;99551.13;5048333;28;20286;-66
2023/08/22 09:21:35;;;;;;;1.50;0.93;;;;;;;37.84;31.98;99551.38;5045494;28;20264;-66
2023/08/22 09:24:09;;;;;;;1.88;1.08;;;;;;;37.82;31.09;99553.47;5045743;28;20282;-68
2023/08/22 09:26:37;;;;;;;0.90;0.90;;;;;;;37.89;31.64;99548.88;5047672;28;20894;-67
2023/08/22 09:29:06;;;;;;;1.27;1.27;;;;;;;38.06;31.75;99543.84;5048189;28;20205;-67
2023/08/22 09:31:35;;;;;;;1.10;0.90;;;;;;;37.99;30.59;99546.56;5048146;28;20299;-67
2023/08/22 09:34:09;;;;;;;1.15;1.15;;;;;;;37.94;30.57;99535.69;5047652;28;20258;-66
2023/08/22 09:36:45;;;;;;;1.25;1.15;;;;;;;38.00;29.74;99539.38;5048325;28;20291;-67
2023/08/22 09:39:15;;;;;;;0.95;0.95;;;;;;;38.01;32.43;99531.09;5045209;28;20774;-66
2023/08/22 09:41:42;;;;;;;1.10;1.10;;;;;;;38.05;31.30;99531.47;5046323;28;20657;-67
2023/08/22 09:44:10;;;;;;;1.63;1.23;;;;;;;38.21;31.45;99537.09;5043398;28;20598;-67
2023/08/22 09:46:40;;;;;;;5.32;1.08;;;;;;;38.34;30.78;99528.91;5044760;28;20213;-66
2023/08/22 09:49:08;;;;;;;2.25;1.00;;;;;;;38.35;30.61;99527.84;5047122;28;20287;-66
2023/08/22 09:51:38;;;;;;;1.73;1.23;;;;;;;38.33;31.09;99527.28;5047997;28;20262;-66
2023/08/22 09:54:07;;;;;;;1.00;1.00;;;;;;;38.26;31.33;99529.19;5049911;28;20768;-67
2023/08/22 09:56:34;;;;;;;0.90;0.90;;;;;;;38.13;30.76;99523.97;5049205;28;20201;-67
2023/08/22 09:59:02;;;;;;;0.90;0.90;;;;;;;38.28;30.18;99516.41;5050834;28;20209;-67
2023/08/22 10:01:30;;;;;;;1.10;1.10;;;;;;;38.19;30.66;99517.72;5050165;28;20750;-67
2023/08/22 10:03:57;;;;;;;1.00;1.00;;;;;;;38.23;31.47;99524.28;5050991;28;20243;-67
2023/08/22 10:06:28;;;;;;;0.95;0.93;;;;;;;38.23;31.18;99524.28;5050697;28;20211;-66
2023/08/22 10:08:57;;;;;;;1.13;1.10;;;;;;;38.39;30.18;99517.53;5047563;28;20210;-67
2023/08/22 10:11:27;;;;;;;1.90;1.80;;;;;;;38.26;30.21;99515.81;5050542;28;20668;-68
2023/08/22 10:13:54;;;;;;;1.10;1.00;;;;;;;38.18;30.85;99510.75;5050567;28;20275;-67
2023/08/22 10:16:21;;;;;;;1.00;1.00;;;;;;;38.22;32.14;99517.31;5049746;28;20209;-67
2023/08/22 10:18:48;;;;;;;2.45;1.33;;;;;;;38.34;30.88;99509.34;5049513;28;20208;-66
2023/08/22 10:21:17;;;;;;;1.23;1.15;;;;;;;38.42;30.34;99510.94;5049980;28;20204;-67
2023/08/22 10:23:59;;;;;;;1.13;1.02;;;;;;;38.23;31.25;99489.47;5050533;28;20232;-66
2023/08/22 10:26:30;;;;;;;2.50;1.08;;;;;;;38.43;30.70;99501.84;5048835;28;20197;-67
2023/08/22 10:29:16;;;;;;;1.25;1.25;;;;;;;38.50;31.64;99498.06;5050304;28;20209;-67
2023/08/22 10:32:22;;;;;;;1.30;1.30;;;;;;;38.59;30.79;99498.56;5050594;28;20207;-67
2023/08/22 10:35:04;;;;;;;1.02;1.02;;;;;;;38.45;30.84;99500.63;5049948;28;20200;-66
2023/08/22 10:37:31;;;;;;;1.13;1.13;;;;;;;38.31;30.35;99497.22;5050243;28;20205;-68
2023/08/22 10:40:04;;;;;;;0.90;0.90;;;;;;;38.53;31.32;99494.09;5050907;28;20576;-67
2023/08/22 10:42:31;;;;;;;1.20;1.10;;;;;;;38.81;30.78;99495.22;5049416;28;20200;-68
2023/08/22 10:44:59;;;;;;;0.85;0.85;;;;;;;38.65;31.18;99473.53;5050432;28;20208;-67
2023/08/22 10:47:27;;;;;;;1.23;1.10;;;;;;;38.74;31.14;99496.34;5050269;28;20220;-68
2023/08/22 10:49:55;;;;;;;1.05;1.05;;;;;;;38.55;30.05;99500.88;5050575;28;20844;-67
2023/08/22 10:52:26;;;;;;;1.25;1.20;;;;;;;38.49;29.80;99496.41;5049481;28;20196;-67
2023/08/22 10:55:05;;;;;;;0.80;0.80;;;;;;;38.73;30.49;99492.00;5050615;28;20201;-68
2023/08/22 10:57:33;;;;;;;1.17;1.17;;;;;;;38.76;30.00;99481.66;5051231;28;20207;-67
2023/08/22 11:00:12;;;;;;;0.93;0.93;;;;;;;38.73;30.38;99497.38;5051446;28;20263;-68
2023/08/22 11:02:40;;;;;;;1.27;1.23;;;;;;;38.41;30.31;99490.56;5050254;28;20673;-67
2023/08/22 11:05:10;;;;;;;1.08;1.08;;;;;;;38.58;29.38;99486.22;5050308;28;20204;-67
2023/08/22 11:07:37;;;;;;;1.27;1.17;;;;;;;38.26;30.16;99475.63;5050966;28;20649;-68
2023/08/22 11:10:06;;;;;;;0.95;0.95;;;;;;;38.01;30.99;99482.91;5051701;28;20604;-68
2023/08/22 11:12:33;;;;;;;1.92;1.02;;;;;;;37.89;30.49;99490.00;5051931;28;20204;-68
2023/08/22 11:15:01;;;;;;;1.30;1.20;;;;;;;37.80;30.16;99480.63;5049521;28;20235;-67
2023/08/22 11:17:28;;;;;;;1.35;1.33;;;;;;;37.97;30.00;99488.94;5051025;28;20620;-66
2023/08/22 11:19:57;;;;;;;0.95;0.95;;;;;;;38.12;30.23;99484.88;5051854;28;20227;-67
2023/08/22 11:22:24;;;;;;;1.98;1.20;;;;;;;37.86;30.47;99487.75;5049803;28;20621;-66
2023/08/22 11:24:52;;;;;;;1.27;1.27;;;;;;;37.94;30.49;99475.97;5048597;28;20631;-67
2023/08/22 11:27:20;;;;;;;0.90;0.90;;;;;;;38.10;30.56;99476.22;5050727;28;20258;-66
2023/08/22 11:29:49;;;;;;;1.13;1.13;;;;;;;38.26;30.40;99475.63;5050930;28;20673;-68
2023/08/22 11:32:20;;;;;;;1.45;1.40;;;;;;;38.38;30.37;99474.94;5050462;28;20200;-68
2023/08/22 11:34:47;;;;;;;1.02;1.00;;;;;;;38.47;30.25;99478.94;5051420;28;20291;-68
2023/08/22 11:37:14;;;;;;;1.27;1.17;;;;;;;38.30;29.41;99476.81;5051417;28;20193;-67